sensor_id;sensor_type;location;lat;lon;timestamp;temperature;humidity
18906;DHT22;9585;51.018;4.282;2024-01-16T00:01:17;1.40;99.90
18906;DHT22;9585;51.018;4.282;2024-01-16T00:03:45;1.40;99.90
18906;DHT22;9585;51.018;4.282;2024-01-16T00:06:13;1.40;99.90
18906;DHT22;9585;51.018;4.282;2024-01-16T00:08:40;1.50;99.90
18906;DHT22;9585;51.018;4.282;2024-01-16T00:11:08;1.50;99.90
18906;DHT22;9585;51.018;4.282;2024-01-16T00:13:37;1.50;99.90
18906;DHT22;9585;51.018;4.282;2024-01-16T00:16:05;1.40;99.90
18906;DHT22;9585;51.018;4.282;2024-01-16T00:18:32;1.30;99.90
18906;DHT22;9585;51.018;4.282;2024-01-16T00:21:00;1.20;99.90
18906;DHT22;9585;51.018;4.282;2024-01-16T00:23:29;1.20;99.90
18906;DHT22;9585;51.018;4.282;2024-01-16T00:25:58;1.30;99.90
18906;DHT22;9585;51.018;4.282;2024-01-16T00:28:30;1.40;99.90
18906;DHT22;9585;51.018;4.282;2024-01-16T00:30:59;1.40;99.90
18906;DHT22;9585;51.018;4.282;2024-01-16T00:33:27;1.40;99.90
18906;DHT22;9585;51.018;4.282;2024-01-16T00:35:54;1.40;99.90
18906;DHT22;9585;51.018;4.282;2024-01-16T00:38:22;1.40;99.90
18906;DHT22;9585;51.018;4.282;2024-01-16T00:40:49;1.40;99.90
18906;DHT22;9585;51.018;4.282;2024-01-16T00:43:17;1.40;99.90
18906;DHT22;9585;51.018;4.282;2024-01-16T00:45:44;1.30;99.90
18906;DHT22;9585;51.018;4.282;2024-01-16T00:48:13;1.20;99.90
18906;DHT22;9585;51.018;4.282;2024-01-16T00:50:41;1.30;99.90
18906;DHT22;9585;51.018;4.282;2024-01-16T00:53:09;1.30;99.90
18906;DHT22;9585;51.018;4.282;2024-01-16T00:55:37;1.30;99.90
18906;DHT22;9585;51.018;4.282;2024-01-16T00:58:04;1.20;99.90
18906;DHT22;9585;51.018;4.282;2024-01-16T01:00:32;1.20;99.90
18906;DHT22;9585;51.018;4.282;2024-01-16T01:03:01;1.10;99.90
18906;DHT22;9585;51.018;4.282;2024-01-16T01:05:31;1.00;99.90
18906;DHT22;9585;51.018;4.282;2024-01-16T01:07:58;0.90;99.90
18906;DHT22;9585;51.018;4.282;2024-01-16T01:10:26;0.90;99.90
18906;DHT22;9585;51.018;4.282;2024-01-16T01:12:54;0.90;99.90
18906;DHT22;9585;51.018;4.282;2024-01-16T01:15:24;0.90;99.90
18906;DHT22;9585;51.018;4.282;2024-01-16T01:17:52;0.80;99.90
18906;DHT22;9585;51.018;4.282;2024-01-16T01:20:20;0.70;99.90
18906;DHT22;9585;51.018;4.282;2024-01-16T01:22:49;0.60;99.90
18906;DHT22;9585;51.018;4.282;2024-01-16T01:25:17;0.60;99.90
18906;DHT22;9585;51.018;4.282;2024-01-16T01:27:44;0.60;99.90
18906;DHT22;9585;51.018;4.282;2024-01-16T01:30:13;0.60;99.90
18906;DHT22;9585;51.018;4.282;2024-01-16T01:32:41;0.50;99.90
18906;DHT22;9585;51.018;4.282;2024-01-16T01:35:10;0.50;99.90
18906;DHT22;9585;51.018;4.282;2024-01-16T01:37:37;0.50;99.90
18906;DHT22;9585;51.018;4.282;2024-01-16T01:40:09;0.50;99.90
18906;DHT22;9585;51.018;4.282;2024-01-16T01:42:40;0.40;99.90
18906;DHT22;9585;51.018;4.282;2024-01-16T01:45:08;0.40;99.90
18906;DHT22;9585;51.018;4.282;2024-01-16T01:47:36;0.40;99.90
18906;DHT22;9585;51.018;4.282;2024-01-16T01:50:04;0.30;99.90
18906;DHT22;9585;51.018;4.282;2024-01-16T01:52:34;0.30;99.90
18906;DHT22;9585;51.018;4.282;2024-01-16T01:55:02;0.20;99.90
18906;DHT22;9585;51.018;4.282;2024-01-16T01:57:34;0.20;99.90
18906;DHT22;9585;51.018;4.282;2024-01-16T02:00:02;0.10;99.90
18906;DHT22;9585;51.018;4.282;2024-01-16T02:02:31;0.10;99.90
18906;DHT22;9585;51.018;4.282;2024-01-16T02:04:59;0.20;99.90
18906;DHT22;9585;51.018;4.282;2024-01-16T02:07:27;0.10;99.90
18906;DHT22;9585;51.018;4.282;2024-01-16T02:09:55;0.10;99.90
18906;DHT22;9585;51.018;4.282;2024-01-16T02:12:23;0.10;99.90
18906;DHT22;9585;51.018;4.282;2024-01-16T02:14:52;0.10;99.90
18906;DHT22;9585;51.018;4.282;2024-01-16T02:17:19;0.00;99.90
18906;DHT22;9585;51.018;4.282;2024-01-16T02:19:48;0.00;99.90
18906;DHT22;9585;51.018;4.282;2024-01-16T02:22:19;-0.10;99.90
18906;DHT22;9585;51.018;4.282;2024-01-16T02:24:49;-0.10;99.90
18906;DHT22;9585;51.018;4.282;2024-01-16T02:27:17;0.00;99.90
18906;DHT22;9585;51.018;4.282;2024-01-16T02:29:44;0.00;99.90
18906;DHT22;9585;51.018;4.282;2024-01-16T02:32:12;-0.10;99.90
18906;DHT22;9585;51.018;4.282;2024-01-16T02:34:40;0.00;99.90
18906;DHT22;9585;51.018;4.282;2024-01-16T02:37:08;-0.10;99.90
18906;DHT22;9585;51.018;4.282;2024-01-16T02:39:36;-0.10;99.90
18906;DHT22;9585;51.018;4.282;2024-01-16T02:42:05;-0.10;99.90
18906;DHT22;9585;51.018;4.282;2024-01-16T02:44:33;-0.10;99.90
18906;DHT22;9585;51.018;4.282;2024-01-16T02:47:00;-0.20;99.90
18906;DHT22;9585;51.018;4.282;2024-01-16T02:49:28;-0.20;99.90
18906;DHT22;9585;51.018;4.282;2024-01-16T02:51:58;-0.30;99.90
18906;DHT22;9585;51.018;4.282;2024-01-16T02:54:25;-0.30;99.90
18906;DHT22;9585;51.018;4.282;2024-01-16T02:56:53;-0.30;99.90
18906;DHT22;9585;51.018;4.282;2024-01-16T02:59:22;-0.30;99.90
18906;DHT22;9585;51.018;4.282;2024-01-16T03:01:50;-0.30;99.90
18906;DHT22;9585;51.018;4.282;2024-01-16T03:04:17;-0.30;99.90
18906;DHT22;9585;51.018;4.282;2024-01-16T03:06:45;-0.30;99.90
18906;DHT22;9585;51.018;4.282;2024-01-16T03:09:13;-0.40;99.90
18906;DHT22;9585;51.018;4.282;2024-01-16T03:11:40;-0.30;99.90
18906;DHT22;9585;51.018;4.282;2024-01-16T03:14:08;-0.40;99.90
18906;DHT22;9585;51.018;4.282;2024-01-16T03:16:37;-0.30;99.90
18906;DHT22;9585;51.018;4.282;2024-01-16T03:19:05;-0.40;99.90
18906;DHT22;9585;51.018;4.282;2024-01-16T03:21:32;-0.40;99.90
18906;DHT22;9585;51.018;4.282;2024-01-16T03:24:00;-0.40;99.90
18906;DHT22;9585;51.018;4.282;2024-01-16T03:26:27;-0.30;99.90
18906;DHT22;9585;51.018;4.282;2024-01-16T03:28:55;-0.30;99.90
18906;DHT22;9585;51.018;4.282;2024-01-16T03:31:22;-0.30;99.90
18906;DHT22;9585;51.018;4.282;2024-01-16T03:33:53;-0.30;99.90
18906;DHT22;9585;51.018;4.282;2024-01-16T03:36:20;-0.20;99.90
18906;DHT22;9585;51.018;4.282;2024-01-16T03:38:49;-0.30;99.90
18906;DHT22;9585;51.018;4.282;2024-01-16T03:41:17;-0.20;99.90
18906;DHT22;9585;51.018;4.282;2024-01-16T03:43:53;-0.30;99.90
18906;DHT22;9585;51.018;4.282;2024-01-16T03:46:22;-0.30;99.90
18906;DHT22;9585;51.018;4.282;2024-01-16T03:48:51;-0.30;99.90
18906;DHT22;9585;51.018;4.282;2024-01-16T03:51:19;-0.30;99.90
18906;DHT22;9585;51.018;4.282;2024-01-16T03:53:47;-0.30;99.90
18906;DHT22;9585;51.018;4.282;2024-01-16T03:56:15;-0.30;99.90
18906;DHT22;9585;51.018;4.282;2024-01-16T03:58:43;-0.40;99.90
18906;DHT22;9585;51.018;4.282;2024-01-16T04:01:11;-0.40;99.90
18906;DHT22;9585;51.018;4.282;2024-01-16T04:03:39;-0.30;99.90
18906;DHT22;9585;51.018;4.282;2024-01-16T04:06:16;-0.30;99.90
18906;DHT22;9585;51.018;4.282;2024-01-16T04:08:45;-0.30;99.90
18906;DHT22;9585;51.018;4.282;2024-01-16T04:11:13;-0.20;99.90
18906;DHT22;9585;51.018;4.282;2024-01-16T04:13:41;-0.20;99.90
18906;DHT22;9585;51.018;4.282;2024-01-16T04:16:08;-0.20;99.90
18906;DHT22;9585;51.018;4.282;2024-01-16T04:18:36;-0.20;99.90
18906;DHT22;9585;51.018;4.282;2024-01-16T04:21:04;-0.20;99.90
18906;DHT22;9585;51.018;4.282;2024-01-16T04:23:34;-0.30;99.90
18906;DHT22;9585;51.018;4.282;2024-01-16T04:26:02;-0.30;99.90
18906;DHT22;9585;51.018;4.282;2024-01-16T04:28:29;-0.30;99.90
18906;DHT22;9585;51.018;4.282;2024-01-16T04:30:57;-0.40;99.90
18906;DHT22;9585;51.018;4.282;2024-01-16T04:33:25;-0.40;99.90
18906;DHT22;9585;51.018;4.282;2024-01-16T04:35:53;-0.40;99.90
18906;DHT22;9585;51.018;4.282;2024-01-16T04:38:20;-0.40;99.90
18906;DHT22;9585;51.018;4.282;2024-01-16T04:40:50;-0.50;99.90
18906;DHT22;9585;51.018;4.282;2024-01-16T04:43:18;-0.50;99.90
18906;DHT22;9585;51.018;4.282;2024-01-16T04:45:45;-0.50;99.90
18906;DHT22;9585;51.018;4.282;2024-01-16T04:48:13;-0.60;99.90
18906;DHT22;9585;51.018;4.282;2024-01-16T04:50:41;-0.60;99.90
18906;DHT22;9585;51.018;4.282;2024-01-16T04:53:08;-0.60;99.90
18906;DHT22;9585;51.018;4.282;2024-01-16T04:55:36;-0.60;99.90
18906;DHT22;9585;51.018;4.282;2024-01-16T04:58:05;-0.70;99.90
18906;DHT22;9585;51.018;4.282;2024-01-16T05:00:33;-0.60;99.90
18906;DHT22;9585;51.018;4.282;2024-01-16T05:03:04;-0.60;99.90
18906;DHT22;9585;51.018;4.282;2024-01-16T05:05:32;-0.60;99.90
18906;DHT22;9585;51.018;4.282;2024-01-16T05:08:01;-0.70;99.90
18906;DHT22;9585;51.018;4.282;2024-01-16T05:10:29;-0.70;99.90
18906;DHT22;9585;51.018;4.282;2024-01-16T05:12:59;-0.70;99.90
18906;DHT22;9585;51.018;4.282;2024-01-16T05:15:28;-0.80;99.90
18906;DHT22;9585;51.018;4.282;2024-01-16T05:17:56;-0.80;99.90
18906;DHT22;9585;51.018;4.282;2024-01-16T05:20:24;-0.80;99.90
18906;DHT22;9585;51.018;4.282;2024-01-16T05:22:51;-0.80;99.90
18906;DHT22;9585;51.018;4.282;2024-01-16T05:25:19;-0.80;99.90
18906;DHT22;9585;51.018;4.282;2024-01-16T05:27:47;-0.90;99.90
18906;DHT22;9585;51.018;4.282;2024-01-16T05:30:16;-0.90;99.90
18906;DHT22;9585;51.018;4.282;2024-01-16T05:32:45;-0.90;99.90
18906;DHT22;9585;51.018;4.282;2024-01-16T05:35:13;-0.80;99.90
18906;DHT22;9585;51.018;4.282;2024-01-16T05:37:41;-0.80;99.90
18906;DHT22;9585;51.018;4.282;2024-01-16T05:40:09;-0.90;99.90
18906;DHT22;9585;51.018;4.282;2024-01-16T05:42:37;-0.80;99.90
18906;DHT22;9585;51.018;4.282;2024-01-16T05:45:06;-0.90;99.90
18906;DHT22;9585;51.018;4.282;2024-01-16T05:47:34;-1.00;99.90
18906;DHT22;9585;51.018;4.282;2024-01-16T05:50:04;-1.00;99.90
18906;DHT22;9585;51.018;4.282;2024-01-16T05:52:32;-1.00;99.90
18906;DHT22;9585;51.018;4.282;2024-01-16T05:54:59;-1.10;99.90
18906;DHT22;9585;51.018;4.282;2024-01-16T05:57:29;-1.10;99.90
18906;DHT22;9585;51.018;4.282;2024-01-16T05:59:59;-1.20;99.90
18906;DHT22;9585;51.018;4.282;2024-01-16T06:02:28;-1.20;99.90
18906;DHT22;9585;51.018;4.282;2024-01-16T06:04:56;-1.20;99.90
18906;DHT22;9585;51.018;4.282;2024-01-16T06:07:25;-1.20;99.90
18906;DHT22;9585;51.018;4.282;2024-01-16T06:09:53;-1.30;99.90
18906;DHT22;9585;51.018;4.282;2024-01-16T06:12:21;-1.30;99.90
18906;DHT22;9585;51.018;4.282;2024-01-16T06:14:48;-1.30;99.90
18906;DHT22;9585;51.018;4.282;2024-01-16T06:17:16;-1.30;99.90
18906;DHT22;9585;51.018;4.282;2024-01-16T06:19:44;-1.30;99.90
18906;DHT22;9585;51.018;4.282;2024-01-16T06:22:13;-1.20;99.90
18906;DHT22;9585;51.018;4.282;2024-01-16T06:24:42;-1.20;99.90
18906;DHT22;9585;51.018;4.282;2024-01-16T06:27:09;-1.20;99.90
18906;DHT22;9585;51.018;4.282;2024-01-16T06:29:37;-1.20;99.90
18906;DHT22;9585;51.018;4.282;2024-01-16T06:32:05;-1.20;99.90
18906;DHT22;9585;51.018;4.282;2024-01-16T06:34:32;-1.10;99.90
18906;DHT22;9585;51.018;4.282;2024-01-16T06:37:00;-1.10;99.90
18906;DHT22;9585;51.018;4.282;2024-01-16T06:39:28;-1.00;99.90
18906;DHT22;9585;51.018;4.282;2024-01-16T06:41:57;-1.00;99.90
18906;DHT22;9585;51.018;4.282;2024-01-16T06:44:26;-0.90;99.90
18906;DHT22;9585;51.018;4.282;2024-01-16T06:46:57;-0.90;99.90
18906;DHT22;9585;51.018;4.282;2024-01-16T06:49:24;-0.90;99.90
18906;DHT22;9585;51.018;4.282;2024-01-16T06:51:53;-0.80;99.90
18906;DHT22;9585;51.018;4.282;2024-01-16T06:54:20;-0.80;99.90
18906;DHT22;9585;51.018;4.282;2024-01-16T06:56:49;-0.90;99.90
18906;DHT22;9585;51.018;4.282;2024-01-16T06:59:19;-0.80;99.90
18906;DHT22;9585;51.018;4.282;2024-01-16T07:01:47;-0.90;99.90
18906;DHT22;9585;51.018;4.282;2024-01-16T07:04:15;-0.80;99.90
18906;DHT22;9585;51.018;4.282;2024-01-16T07:06:43;-0.90;99.90
18906;DHT22;9585;51.018;4.282;2024-01-16T07:09:11;-0.90;99.90
18906;DHT22;9585;51.018;4.282;2024-01-16T07:11:39;-0.90;99.90
18906;DHT22;9585;51.018;4.282;2024-01-16T07:14:09;-0.80;99.90
18906;DHT22;9585;51.018;4.282;2024-01-16T07:16:38;-0.80;99.90
18906;DHT22;9585;51.018;4.282;2024-01-16T07:19:05;-0.80;99.90
18906;DHT22;9585;51.018;4.282;2024-01-16T07:21:33;-0.70;99.90
18906;DHT22;9585;51.018;4.282;2024-01-16T07:24:01;-0.80;99.90
18906;DHT22;9585;51.018;4.282;2024-01-16T07:26:29;-0.70;99.90
18906;DHT22;9585;51.018;4.282;2024-01-16T07:29:03;-0.70;99.90
18906;DHT22;9585;51.018;4.282;2024-01-16T07:31:31;-0.70;99.90
18906;DHT22;9585;51.018;4.282;2024-01-16T07:34:00;-0.70;99.90
18906;DHT22;9585;51.018;4.282;2024-01-16T07:36:28;-0.70;99.90
18906;DHT22;9585;51.018;4.282;2024-01-16T07:38:55;-0.70;99.90
18906;DHT22;9585;51.018;4.282;2024-01-16T07:41:23;-0.70;99.90
18906;DHT22;9585;51.018;4.282;2024-01-16T07:43:51;-0.70;99.90
18906;DHT22;9585;51.018;4.282;2024-01-16T07:46:18;-0.70;99.90
18906;DHT22;9585;51.018;4.282;2024-01-16T07:48:46;-0.60;99.90
18906;DHT22;9585;51.018;4.282;2024-01-16T07:51:15;-0.60;99.90
18906;DHT22;9585;51.018;4.282;2024-01-16T07:53:43;-0.60;99.90
18906;DHT22;9585;51.018;4.282;2024-01-16T07:56:10;-0.60;99.90
18906;DHT22;9585;51.018;4.282;2024-01-16T07:58:38;-0.60;99.90
18906;DHT22;9585;51.018;4.282;2024-01-16T08:01:06;-0.50;99.90
18906;DHT22;9585;51.018;4.282;2024-01-16T08:03:34;-0.50;99.90
18906;DHT22;9585;51.018;4.282;2024-01-16T08:06:01;-0.50;99.90
18906;DHT22;9585;51.018;4.282;2024-01-16T08:08:31;-0.50;99.90
18906;DHT22;9585;51.018;4.282;2024-01-16T08:10:59;-0.40;99.90
18906;DHT22;9585;51.018;4.282;2024-01-16T08:13:27;-0.40;99.90
18906;DHT22;9585;51.018;4.282;2024-01-16T08:15:55;-0.40;99.90
18906;DHT22;9585;51.018;4.282;2024-01-16T08:18:22;-0.40;99.90
18906;DHT22;9585;51.018;4.282;2024-01-16T08:20:50;-0.40;99.90
18906;DHT22;9585;51.018;4.282;2024-01-16T08:23:17;-0.30;99.90
18906;DHT22;9585;51.018;4.282;2024-01-16T08:25:48;-0.30;99.90
18906;DHT22;9585;51.018;4.282;2024-01-16T08:28:17;-0.30;99.90
18906;DHT22;9585;51.018;4.282;2024-01-16T08:30:45;-0.20;99.90
18906;DHT22;9585;51.018;4.282;2024-01-16T08:33:13;-0.20;99.90
18906;DHT22;9585;51.018;4.282;2024-01-16T08:35:40;-0.20;99.90
18906;DHT22;9585;51.018;4.282;2024-01-16T08:38:08;-0.20;99.90
18906;DHT22;9585;51.018;4.282;2024-01-16T08:40:35;-0.10;99.90
18906;DHT22;9585;51.018;4.282;2024-01-16T08:43:05;-0.10;99.90
18906;DHT22;9585;51.018;4.282;2024-01-16T08:45:32;-0.10;99.90
18906;DHT22;9585;51.018;4.282;2024-01-16T08:48:00;0.10;99.90
18906;DHT22;9585;51.018;4.282;2024-01-16T08:50:29;0.10;99.90
18906;DHT22;9585;51.018;4.282;2024-01-16T08:52:56;0.10;99.90
18906;DHT22;9585;51.018;4.282;2024-01-16T08:55:24;0.10;99.90
18906;DHT22;9585;51.018;4.282;2024-01-16T08:57:52;0.10;99.90
18906;DHT22;9585;51.018;4.282;2024-01-16T09:00:21;0.10;99.90
18906;DHT22;9585;51.018;4.282;2024-01-16T09:02:49;0.10;99.90
18906;DHT22;9585;51.018;4.282;2024-01-16T09:05:17;0.10;99.90
18906;DHT22;9585;51.018;4.282;2024-01-16T09:07:47;0.10;99.90
18906;DHT22;9585;51.018;4.282;2024-01-16T09:10:18;0.20;99.90
18906;DHT22;9585;51.018;4.282;2024-01-16T09:12:49;0.20;99.90
18906;DHT22;9585;51.018;4.282;2024-01-16T09:15:17;0.20;99.90
18906;DHT22;9585;51.018;4.282;2024-01-16T09:17:46;0.30;99.90
18906;DHT22;9585;51.018;4.282;2024-01-16T09:20:16;0.40;99.90
18906;DHT22;9585;51.018;4.282;2024-01-16T09:22:52;0.40;99.90
18906;DHT22;9585;51.018;4.282;2024-01-16T09:25:20;0.40;99.90
18906;DHT22;9585;51.018;4.282;2024-01-16T09:27:51;0.50;99.90
18906;DHT22;9585;51.018;4.282;2024-01-16T09:30:19;0.60;99.90
18906;DHT22;9585;51.018;4.282;2024-01-16T09:32:50;0.70;99.90
18906;DHT22;9585;51.018;4.282;2024-01-16T09:35:21;0.80;99.90
18906;DHT22;9585;51.018;4.282;2024-01-16T09:37:49;0.80;99.90
18906;DHT22;9585;51.018;4.282;2024-01-16T09:40:20;0.90;99.90
18906;DHT22;9585;51.018;4.282;2024-01-16T09:42:48;0.80;99.90
18906;DHT22;9585;51.018;4.282;2024-01-16T09:45:19;0.80;99.90
18906;DHT22;9585;51.018;4.282;2024-01-16T09:47:50;0.90;99.90
18906;DHT22;9585;51.018;4.282;2024-01-16T09:50:19;1.10;99.90
18906;DHT22;9585;51.018;4.282;2024-01-16T09:52:47;1.10;99.90
18906;DHT22;9585;51.018;4.282;2024-01-16T09:55:15;1.20;99.90
18906;DHT22;9585;51.018;4.282;2024-01-16T09:57:45;1.10;99.90
18906;DHT22;9585;51.018;4.282;2024-01-16T10:00:13;1.10;99.90
18906;DHT22;9585;51.018;4.282;2024-01-16T10:24:14;1.00;99.90
18906;DHT22;9585;51.018;4.282;2024-01-16T10:26:45;1.10;99.90
18906;DHT22;9585;51.018;4.282;2024-01-16T10:29:14;1.20;99.90
18906;DHT22;9585;51.018;4.282;2024-01-16T10:31:42;1.20;99.90
18906;DHT22;9585;51.018;4.282;2024-01-16T10:34:20;1.30;99.90
18906;DHT22;9585;51.018;4.282;2024-01-16T10:36:59;1.30;99.90
18906;DHT22;9585;51.018;4.282;2024-01-16T10:39:29;1.30;99.90
18906;DHT22;9585;51.018;4.282;2024-01-16T10:41:58;1.40;99.90
18906;DHT22;9585;51.018;4.282;2024-01-16T10:44:29;1.50;99.90
18906;DHT22;9585;51.018;4.282;2024-01-16T10:47:13;1.50;99.90
18906;DHT22;9585;51.018;4.282;2024-01-16T10:49:42;1.60;99.90
18906;DHT22;9585;51.018;4.282;2024-01-16T10:52:13;1.70;99.90
18906;DHT22;9585;51.018;4.282;2024-01-16T10:54:44;1.80;99.90
18906;DHT22;9585;51.018;4.282;2024-01-16T10:57:15;1.80;99.90
18906;DHT22;9585;51.018;4.282;2024-01-16T10:59:50;1.90;99.90
18906;DHT22;9585;51.018;4.282;2024-01-16T11:02:25;2.00;99.90
18906;DHT22;9585;51.018;4.282;2024-01-16T11:04:59;2.00;99.90
18906;DHT22;9585;51.018;4.282;2024-01-16T11:07:28;1.90;99.90
18906;DHT22;9585;51.018;4.282;2024-01-16T11:09:58;1.80;99.90
18906;DHT22;9585;51.018;4.282;2024-01-16T11:12:29;1.80;99.90
18906;DHT22;9585;51.018;4.282;2024-01-16T11:15:03;1.80;99.90
18906;DHT22;9585;51.018;4.282;2024-01-16T11:17:34;2.00;99.90
18906;DHT22;9585;51.018;4.282;2024-01-16T11:20:02;2.10;99.90
18906;DHT22;9585;51.018;4.282;2024-01-16T11:22:38;2.10;99.90
18906;DHT22;9585;51.018;4.282;2024-01-16T11:25:10;2.10;99.90
18906;DHT22;9585;51.018;4.282;2024-01-16T11:27:42;2.30;99.90
18906;DHT22;9585;51.018;4.282;2024-01-16T11:30:12;2.30;99.90
18906;DHT22;9585;51.018;4.282;2024-01-16T11:32:41;2.50;99.90
18906;DHT22;9585;51.018;4.282;2024-01-16T11:35:11;2.40;99.90
18906;DHT22;9585;51.018;4.282;2024-01-16T11:37:42;2.40;99.90
18906;DHT22;9585;51.018;4.282;2024-01-16T11:40:26;2.40;99.90
18906;DHT22;9585;51.018;4.282;2024-01-16T11:42:55;2.50;99.90
18906;DHT22;9585;51.018;4.282;2024-01-16T11:45:49;2.40;99.90
18906;DHT22;9585;51.018;4.282;2024-01-16T11:48:21;2.50;99.90
18906;DHT22;9585;51.018;4.282;2024-01-16T11:50:51;2.60;99.90
18906;DHT22;9585;51.018;4.282;2024-01-16T11:53:33;2.70;99.90
18906;DHT22;9585;51.018;4.282;2024-01-16T11:56:34;2.90;99.90
18906;DHT22;9585;51.018;4.282;2024-01-16T12:02:05;3.00;99.90
18906;DHT22;9585;51.018;4.282;2024-01-16T12:04:40;3.10;99.90
18906;DHT22;9585;51.018;4.282;2024-01-16T12:07:08;3.10;99.90
18906;DHT22;9585;51.018;4.282;2024-01-16T12:09:37;3.10;99.90
18906;DHT22;9585;51.018;4.282;2024-01-16T12:12:07;3.10;99.90
18906;DHT22;9585;51.018;4.282;2024-01-16T12:14:35;3.20;99.90
18906;DHT22;9585;51.018;4.282;2024-01-16T12:17:11;3.30;99.90
18906;DHT22;9585;51.018;4.282;2024-01-16T12:19:39;3.20;99.90
18906;DHT22;9585;51.018;4.282;2024-01-16T12:22:09;3.10;99.90
18906;DHT22;9585;51.018;4.282;2024-01-16T12:24:40;3.10;99.90
18906;DHT22;9585;51.018;4.282;2024-01-16T12:27:10;3.10;99.90
18906;DHT22;9585;51.018;4.282;2024-01-16T12:29:37;3.20;99.90
18906;DHT22;9585;51.018;4.282;2024-01-16T12:32:08;3.20;99.90
18906;DHT22;9585;51.018;4.282;2024-01-16T12:34:44;3.30;99.90
18906;DHT22;9585;51.018;4.282;2024-01-16T12:37:12;3.30;99.90
18906;DHT22;9585;51.018;4.282;2024-01-16T12:39:44;3.20;99.90
18906;DHT22;9585;51.018;4.282;2024-01-16T12:42:38;3.30;99.90
18906;DHT22;9585;51.018;4.282;2024-01-16T12:45:09;3.40;99.90
18906;DHT22;9585;51.018;4.282;2024-01-16T12:47:38;3.40;99.90
18906;DHT22;9585;51.018;4.282;2024-01-16T12:50:06;3.30;99.90
18906;DHT22;9585;51.018;4.282;2024-01-16T12:52:35;3.30;99.90
18906;DHT22;9585;51.018;4.282;2024-01-16T12:55:03;3.30;99.90
18906;DHT22;9585;51.018;4.282;2024-01-16T12:57:31;3.30;99.90
18906;DHT22;9585;51.018;4.282;2024-01-16T13:00:00;3.30;99.90
18906;DHT22;9585;51.018;4.282;2024-01-16T13:02:30;3.50;99.90
18906;DHT22;9585;51.018;4.282;2024-01-16T13:05:00;3.30;99.90
18906;DHT22;9585;51.018;4.282;2024-01-16T13:07:30;3.30;99.90
18906;DHT22;9585;51.018;4.282;2024-01-16T13:10:09;3.30;99.90
18906;DHT22;9585;51.018;4.282;2024-01-16T13:12:37;3.40;99.90
18906;DHT22;9585;51.018;4.282;2024-01-16T13:15:07;3.30;99.90
18906;DHT22;9585;51.018;4.282;2024-01-16T13:17:37;3.30;99.90
18906;DHT22;9585;51.018;4.282;2024-01-16T13:20:06;3.40;99.90
18906;DHT22;9585;51.018;4.282;2024-01-16T13:22:35;3.40;99.90
18906;DHT22;9585;51.018;4.282;2024-01-16T13:25:04;3.40;99.90
18906;DHT22;9585;51.018;4.282;2024-01-16T13:27:32;3.50;99.90
18906;DHT22;9585;51.018;4.282;2024-01-16T13:30:00;3.50;99.90
18906;DHT22;9585;51.018;4.282;2024-01-16T13:32:30;3.40;99.90
18906;DHT22;9585;51.018;4.282;2024-01-16T13:34:57;3.50;99.90
18906;DHT22;9585;51.018;4.282;2024-01-16T13:37:25;3.40;99.90
18906;DHT22;9585;51.018;4.282;2024-01-16T13:39:53;3.40;99.90
18906;DHT22;9585;51.018;4.282;2024-01-16T13:42:20;3.40;99.90
18906;DHT22;9585;51.018;4.282;2024-01-16T13:44:48;3.30;99.90
18906;DHT22;9585;51.018;4.282;2024-01-16T13:47:17;3.20;99.90
18906;DHT22;9585;51.018;4.282;2024-01-16T13:49:47;3.20;99.90
18906;DHT22;9585;51.018;4.282;2024-01-16T13:52:15;3.10;99.90
18906;DHT22;9585;51.018;4.282;2024-01-16T13:54:43;3.10;99.90
18906;DHT22;9585;51.018;4.282;2024-01-16T13:57:11;3.20;99.90
18906;DHT22;9585;51.018;4.282;2024-01-16T13:59:38;3.20;99.90
18906;DHT22;9585;51.018;4.282;2024-01-16T14:02:07;3.20;99.90
18906;DHT22;9585;51.018;4.282;2024-01-16T14:04:35;3.20;99.90
18906;DHT22;9585;51.018;4.282;2024-01-16T14:07:05;3.20;99.90
18906;DHT22;9585;51.018;4.282;2024-01-16T14:09:34;3.10;99.90
18906;DHT22;9585;51.018;4.282;2024-01-16T14:12:02;3.00;99.90
18906;DHT22;9585;51.018;4.282;2024-01-16T14:14:29;3.10;99.90
18906;DHT22;9585;51.018;4.282;2024-01-16T14:16:58;3.00;99.90
18906;DHT22;9585;51.018;4.282;2024-01-16T14:19:26;2.90;99.90
18906;DHT22;9585;51.018;4.282;2024-01-16T14:21:55;2.90;99.90
18906;DHT22;9585;51.018;4.282;2024-01-16T14:24:25;3.00;99.90
18906;DHT22;9585;51.018;4.282;2024-01-16T14:26:53;3.00;99.90
18906;DHT22;9585;51.018;4.282;2024-01-16T14:29:22;3.00;99.90
18906;DHT22;9585;51.018;4.282;2024-01-16T14:31:50;3.00;99.90
18906;DHT22;9585;51.018;4.282;2024-01-16T14:34:18;3.00;99.90
18906;DHT22;9585;51.018;4.282;2024-01-16T14:36:46;3.00;99.90
18906;DHT22;9585;51.018;4.282;2024-01-16T14:39:14;3.00;99.90
18906;DHT22;9585;51.018;4.282;2024-01-16T14:41:49;3.00;99.90
18906;DHT22;9585;51.018;4.282;2024-01-16T14:44:17;3.00;99.90
18906;DHT22;9585;51.018;4.282;2024-01-16T14:46:44;2.90;99.90
18906;DHT22;9585;51.018;4.282;2024-01-16T14:49:12;2.90;99.90
18906;DHT22;9585;51.018;4.282;2024-01-16T14:51:39;2.90;99.90
18906;DHT22;9585;51.018;4.282;2024-01-16T14:54:07;2.80;99.90
18906;DHT22;9585;51.018;4.282;2024-01-16T14:56:34;2.80;99.90
18906;DHT22;9585;51.018;4.282;2024-01-16T14:59:03;2.80;99.90
18906;DHT22;9585;51.018;4.282;2024-01-16T15:01:31;2.70;99.90
18906;DHT22;9585;51.018;4.282;2024-01-16T15:03:58;2.70;99.90
18906;DHT22;9585;51.018;4.282;2024-01-16T15:06:27;2.70;99.90
18906;DHT22;9585;51.018;4.282;2024-01-16T15:08:55;2.70;99.90
18906;DHT22;9585;51.018;4.282;2024-01-16T15:11:23;2.60;99.90
18906;DHT22;9585;51.018;4.282;2024-01-16T15:13:51;2.60;99.90
18906;DHT22;9585;51.018;4.282;2024-01-16T15:16:20;2.50;99.90
18906;DHT22;9585;51.018;4.282;2024-01-16T15:18:47;2.40;99.90
18906;DHT22;9585;51.018;4.282;2024-01-16T15:21:15;2.40;99.90
18906;DHT22;9585;51.018;4.282;2024-01-16T15:23:44;2.30;99.90
18906;DHT22;9585;51.018;4.282;2024-01-16T15:26:15;2.20;99.90
18906;DHT22;9585;51.018;4.282;2024-01-16T15:28:46;2.20;99.90
18906;DHT22;9585;51.018;4.282;2024-01-16T15:31:15;2.10;99.90
18906;DHT22;9585;51.018;4.282;2024-01-16T15:33:53;2.10;99.90
18906;DHT22;9585;51.018;4.282;2024-01-16T15:36:22;2.00;99.90
18906;DHT22;9585;51.018;4.282;2024-01-16T15:38:53;1.90;99.90
18906;DHT22;9585;51.018;4.282;2024-01-16T15:41:43;1.90;99.90
18906;DHT22;9585;51.018;4.282;2024-01-16T15:44:26;1.80;99.90
18906;DHT22;9585;51.018;4.282;2024-01-16T15:46:55;1.60;99.90
18906;DHT22;9585;51.018;4.282;2024-01-16T15:49:25;1.60;99.90
18906;DHT22;9585;51.018;4.282;2024-01-16T15:51:53;1.40;99.90
18906;DHT22;9585;51.018;4.282;2024-01-16T15:54:21;1.40;99.90
18906;DHT22;9585;51.018;4.282;2024-01-16T15:56:49;1.30;99.90
18906;DHT22;9585;51.018;4.282;2024-01-16T15:59:16;1.30;99.90
18906;DHT22;9585;51.018;4.282;2024-01-16T16:01:44;1.20;99.90
18906;DHT22;9585;51.018;4.282;2024-01-16T16:04:11;1.10;99.90
18906;DHT22;9585;51.018;4.282;2024-01-16T16:06:42;1.00;99.90
18906;DHT22;9585;51.018;4.282;2024-01-16T16:09:12;1.00;99.90
18906;DHT22;9585;51.018;4.282;2024-01-16T16:11:44;0.90;99.90
18906;DHT22;9585;51.018;4.282;2024-01-16T16:14:12;0.80;99.90
18906;DHT22;9585;51.018;4.282;2024-01-16T16:16:41;0.80;99.90
18906;DHT22;9585;51.018;4.282;2024-01-16T16:19:09;0.70;99.90
18906;DHT22;9585;51.018;4.282;2024-01-16T16:21:37;0.60;99.90
18906;DHT22;9585;51.018;4.282;2024-01-16T16:24:06;0.50;99.90
18906;DHT22;9585;51.018;4.282;2024-01-16T16:26:35;0.50;99.90
18906;DHT22;9585;51.018;4.282;2024-01-16T16:29:05;0.50;99.90
18906;DHT22;9585;51.018;4.282;2024-01-16T16:31:35;0.40;99.90